.
WxDataArchive / Data Records for 2012-07-28
2012-07-27 July 2012 2012-07-29

Data Records for Saturday, 28 July 2012

Time	Temp	Chill	HIndex	Humid	Dewpt	 Wind 	HiWind	WindDir	Rain 	Barom 
-----	----	-----	------	-----	-----	------	------	-------	-----	----- 
00:00	70.3	70.3	70.3	88	66.6	0	0	---	0.00	29.875 
00:05	70.1	70.1	70.1	87	66.0	0	0	---	0.00	29.875 
00:10	69.9	69.9	69.9	88	66.2	0	0	---	0.00	29.875 
00:15	69.9	69.9	69.9	88	66.2	0	0	---	0.00	29.878 
00:20	69.8	69.8	69.8	87	65.7	0	0	---	0.00	29.878 
00:25	69.6	69.6	69.6	87	65.6	0	0	---	0.00	29.878 
00:30	69.6	69.6	69.6	87	65.6	0	1	270	0.00	29.879 
00:35	69.6	69.6	69.6	86	65.2	0	1	270	0.00	29.879 
00:40	69.4	69.4	69.4	86	65.0	0	0	---	0.00	29.879 
00:45	69.3	69.3	69.3	85	64.6	0	2	270	0.00	29.888 
00:50	69.1	69.1	69.1	85	64.4	0	2	270	0.00	29.888 
00:55	68.9	68.9	68.9	85	64.2	0	1	270	0.00	29.888 
01:00	68.9	68.9	68.9	85	64.2	0	1	270	0.00	29.896 
01:05	68.8	68.8	68.8	85	64.1	0	2	270	0.00	29.896 
01:10	68.6	68.6	68.6	86	64.2	0	1	270	0.00	29.896 
01:15	68.4	68.4	68.4	86	64.0	0	1	270	0.00	29.900 
01:20	68.3	68.3	68.3	86	63.9	0	1	270	0.00	29.900 
01:25	68.1	68.1	68.1	86	63.7	0	0	---	0.00	29.900 
01:30	67.9	67.9	67.9	86	63.5	0	0	---	0.00	29.910 
01:35	67.8	67.8	67.8	86	63.5	0	0	---	0.00	29.910 
01:40	67.6	67.6	67.6	87	63.6	0	0	---	0.00	29.910 
01:45	67.4	67.4	67.4	87	63.4	0	0	---	0.00	29.909 
01:50	67.3	67.3	67.3	87	63.3	0	0	---	0.00	29.909 
01:55	67.3	67.3	67.3	87	63.3	0	1	270	0.00	29.909 
02:00	67.1	67.1	67.1	87	63.1	0	1	270	0.00	29.912 
02:05	66.9	66.9	66.9	88	63.2	0	1	270	0.00	29.912 
02:10	66.8	66.8	66.8	88	63.1	0	1	270	0.00	29.912 
02:15	66.8	66.8	66.8	88	63.1	0	0	---	0.00	29.913 
02:20	66.8	66.8	66.8	88	63.1	0	1	270	0.00	29.913 
02:25	66.6	66.6	66.6	88	62.9	0	0	---	0.00	29.913 
02:30	66.6	66.6	66.6	88	62.9	0	1	270	0.00	29.913 
02:35	66.6	66.6	66.6	88	62.9	0	2	270	0.00	29.913 
02:40	66.4	66.4	66.4	88	62.7	0	1	270	0.00	29.913 
02:45	66.4	66.4	66.4	88	62.7	0	1	270	0.00	29.913 
02:50	66.4	66.4	66.4	88	62.7	0	1	270	0.00	29.913 
02:55	66.3	66.3	66.3	88	62.6	0	1	270	0.00	29.913 
03:00	66.3	66.3	66.3	88	62.6	0	1	270	0.00	29.911 
03:05	66.1	66.1	66.1	89	62.8	0	1	270	0.00	29.911 
03:10	66.1	66.1	66.1	89	62.8	0	2	270	0.00	29.911 
03:15	66.0	66.0	66.0	89	62.7	0	2	270	0.00	29.916 
03:20	66.0	66.0	66.0	89	62.7	0	2	270	0.00	29.916 
03:25	65.8	65.8	65.8	89	62.5	0	2	270	0.00	29.916 
03:30	65.8	65.8	65.8	89	62.5	0	2	270	0.00	29.916 
03:35	65.6	65.6	65.6	90	62.6	1	3	270	0.00	29.916 
03:40	65.5	65.5	65.5	90	62.5	0	1	270	0.00	29.916 
03:45	65.3	65.3	65.3	90	62.3	0	1	270	0.00	29.918 
03:50	65.3	65.3	65.3	90	62.3	0	1	270	0.00	29.918 
03:55	65.2	65.2	65.2	90	62.2	0	1	270	0.00	29.918 
04:00	65.2	65.2	65.2	90	62.2	0	1	270	0.00	29.919 
04:05	65.2	65.2	65.2	91	62.5	0	1	270	0.00	29.919 
04:10	65.3	65.3	65.3	91	62.6	0	2	270	0.00	29.919 
04:15	65.5	65.5	65.5	91	62.8	0	2	270	0.00	29.926 
04:20	65.6	65.6	65.6	91	62.9	1	3	270	0.00	29.926 
04:25	65.6	65.6	65.6	90	62.6	0	2	292	0.00	29.926 
04:30	65.8	65.8	65.8	90	62.8	0	2	292	0.00	29.931 
04:35	65.8	65.8	65.8	89	62.5	0	0	---	0.00	29.931 
04:40	65.8	65.8	65.8	89	62.5	0	1	292	0.00	29.931 
04:45	66.0	66.0	66.0	89	62.7	0	3	292	0.00	29.935 
04:50	66.1	66.1	66.1	89	62.8	0	2	292	0.00	29.935 
04:55	66.3	66.3	66.3	89	63.0	0	1	292	0.00	29.935 
05:00	66.3	66.3	66.3	89	63.0	0	1	292	0.00	29.938 
05:05	66.4	66.4	66.4	89	63.1	0	1	292	0.00	29.938 
05:10	66.6	66.6	66.6	89	63.3	1	3	292	0.00	29.938 
05:15	66.6	66.6	66.6	88	62.9	0	4	270	0.00	29.952 
05:20	66.6	66.6	66.6	88	62.9	0	2	270	0.00	29.952 
05:25	66.8	66.8	66.8	88	63.1	0	2	270	0.00	29.952 
05:30	66.8	66.8	66.8	88	63.1	0	2	270	0.00	29.954 
05:35	66.8	66.8	66.8	88	63.1	0	2	270	0.00	29.954 
05:40	66.8	66.8	66.8	88	63.1	0	1	270	0.00	29.954 
05:45	66.8	66.8	66.8	88	63.1	0	2	270	0.00	29.960 
05:50	66.8	66.8	66.8	88	63.1	0	2	270	0.00	29.960 
05:55	66.8	66.8	66.8	88	63.1	0	2	270	0.00	29.960 
06:00	66.8	66.8	66.8	88	63.1	0	1	270	0.00	29.967 
06:05	66.8	66.8	66.8	88	63.1	0	2	270	0.00	29.967 
06:10	66.8	66.8	66.8	88	63.1	1	3	270	0.00	29.967 
06:15	66.8	66.8	66.8	88	63.1	0	3	270	0.00	29.967 
06:20	66.8	66.8	66.8	88	63.1	0	2	270	0.00	29.967 
06:25	66.8	66.8	66.8	88	63.1	0	1	270	0.00	29.967 
06:30	66.8	66.8	66.8	88	63.1	0	1	270	0.00	29.973 
06:35	66.8	66.8	66.8	88	63.1	0	1	270	0.00	29.973 
06:40	66.8	66.8	66.8	88	63.1	0	1	270	0.00	29.973 
06:45	66.8	66.8	66.8	88	63.1	0	1	270	0.00	29.978 
06:50	66.8	66.8	66.8	88	63.1	0	2	270	0.00	29.978 
06:55	66.9	66.9	66.9	88	63.2	0	2	270	0.00	29.978 
07:00	66.9	66.9	66.9	88	63.2	0	1	270	0.00	29.981 
07:05	66.9	66.9	66.9	88	63.2	0	1	270	0.00	29.981 
07:10	66.9	66.9	66.9	88	63.2	0	1	270	0.00	29.981 
07:15	66.9	66.9	66.9	88	63.2	0	1	270	0.00	29.983 
07:20	66.9	66.9	66.9	88	63.2	0	1	270	0.00	29.983 
07:25	67.1	67.1	67.1	88	63.4	0	2	270	0.00	29.983 
07:30	67.1	67.1	67.1	88	63.4	0	1	270	0.00	29.982 
07:35	67.1	67.1	67.1	88	63.4	0	1	270	0.00	29.982 
07:40	67.3	67.3	67.3	88	63.6	0	3	270	0.00	29.982 
07:45	67.4	67.4	67.4	88	63.7	0	1	270	0.00	29.985 
07:50	67.4	67.4	67.4	87	63.4	0	3	270	0.00	29.985 
07:55	67.8	67.8	67.8	87	63.8	1	3	270	0.00	29.985 
08:00	67.8	67.8	67.8	86	63.5	0	3	270	0.00	29.988 
08:05	68.1	68.1	68.1	85	63.4	1	4	22	0.00	29.988 
08:10	68.1	68.1	68.1	84	63.1	1	4	292	0.00	29.988 
08:15	68.1	68.1	68.1	84	63.1	1	4	292	0.00	29.994 
08:20	68.3	68.3	68.3	84	63.3	0	3	248	0.00	29.994 
08:25	68.8	68.8	68.8	84	63.8	0	2	248	0.00	29.994 
08:30	68.9	68.9	68.9	82	63.2	1	4	45	0.00	29.996 
08:35	69.1	69.1	69.1	81	63.0	1	4	292	0.00	29.996 
08:40	69.3	69.3	69.3	80	62.9	1	3	338	0.00	29.996 
08:45	69.6	69.6	69.6	80	63.1	0	2	338	0.00	29.999 
08:50	70.1	70.1	70.1	79	63.3	0	2	338	0.00	29.999 
08:55	70.3	70.3	70.3	77	62.7	1	5	270	0.00	29.999 
09:00	70.3	70.3	70.3	76	62.4	1	4	315	0.00	30.000 
09:05	70.4	70.4	70.4	74	61.7	1	5	90	0.00	30.000 
09:10	70.4	70.4	70.4	74	61.7	1	5	270	0.00	30.000 
09:15	70.9	70.9	70.9	75	62.6	0	4	270	0.00	30.001 
09:20	71.3	71.3	71.3	74	62.6	1	4	270	0.00	30.001 
09:25	71.8	71.8	71.8	73	62.7	1	3	270	0.00	30.001 
09:30	71.8	71.8	71.8	71	61.9	1	4	292	0.00	30.000 
09:35	72.0	72.0	72.0	71	62.1	1	3	90	0.00	30.000 
09:40	72.1	72.1	72.1	71	62.2	1	3	90	0.00	30.000 
09:45	72.0	72.0	72.0	70	61.7	2	5	270	0.00	30.006 
09:50	72.0	72.0	72.0	70	61.7	1	3	292	0.00	30.006 
09:55	72.1	72.1	72.1	71	62.2	1	2	292	0.00	30.006 
10:00	72.8	72.8	72.8	70	62.4	0	2	292	0.00	30.011 
10:05	73.2	73.2	73.2	68	62.0	1	3	90	0.00	30.011 
10:10	73.3	73.3	73.3	67	61.7	2	7	270	0.00	30.011 
10:15	73.5	73.5	73.5	65	61.0	1	6	68	0.00	30.014 
10:20	73.7	73.7	73.7	64	60.7	2	4	270	0.00	30.014 
10:25	74.0	74.0	74.0	65	61.5	0	2	270	0.00	30.014 
10:30	74.6	74.6	74.6	63	61.2	0	4	270	0.00	30.025 
10:35	74.7	74.7	74.7	62	60.8	1	6	270	0.00	30.025 
10:40	74.4	74.4	74.4	61	60.1	2	3	315	0.00	30.025 
10:45	74.2	74.2	74.2	62	60.3	1	4	270	0.00	30.028 
10:50	74.6	74.6	74.6	60	59.8	1	2	270	0.00	30.028 
10:55	74.9	74.9	74.9	62	61.0	1	4	112	0.00	30.028 
11:00	75.8	75.8	77.9	58	59.9	1	4	90	0.00	30.028 
11:05	75.8	75.8	77.9	58	59.9	1	3	292	0.00	30.028 
11:10	75.8	75.8	77.9	58	59.9	1	4	292	0.00	30.028 
11:15	75.8	75.8	77.9	57	59.5	1	5	270	0.00	30.032 
11:20	75.8	75.8	77.9	58	59.9	2	6	270	0.00	30.032 
11:25	76.1	76.1	78.1	59	60.7	1	7	135	0.00	30.032 
11:30	76.3	76.3	78.2	58	60.4	1	4	158	0.00	30.041 
11:35	76.8	76.8	78.6	60	61.8	1	6	270	0.00	30.041 
11:40	77.0	77.0	78.7	57	60.6	1	4	270	0.00	30.041 
11:45	76.8	76.8	78.6	56	59.9	2	5	292	0.00	30.043 
11:50	76.8	76.8	78.6	58	60.9	1	4	225	0.00	30.043 
11:55	77.4	77.4	79.1	59	61.9	1	5	0	0.00	30.043 
12:00	77.7	77.7	79.3	58	61.7	1	4	292	0.00	30.043 
12:05	77.6	77.6	79.2	57	61.1	1	7	292	0.00	30.043 
12:10	77.7	77.7	79.4	61	63.2	0	2	292	0.00	30.043 
12:15	77.7	77.7	79.3	57	61.2	1	5	292	0.00	30.047 
12:20	77.9	77.9	79.5	58	61.9	1	5	292	0.00	30.047 
12:25	77.7	77.7	79.2	55	60.2	1	4	315	0.00	30.047 
12:30	77.7	77.7	79.3	56	60.7	1	4	315	0.00	30.046 
12:35	77.7	77.7	79.2	55	60.2	1	4	90	0.00	30.046 
12:40	78.1	78.1	79.5	54	60.1	1	6	135	0.00	30.046 
12:45	78.3	78.3	79.7	54	60.3	1	4	68	0.00	30.045 
12:50	78.3	78.3	79.7	54	60.3	1	3	0	0.00	30.045 
12:55	78.1	78.1	79.5	54	60.1	1	4	0	0.00	30.045 
13:00	78.5	78.5	79.9	56	61.5	1	3	315	0.00	30.041 
13:05	78.8	78.8	79.9	52	59.7	2	9	90	0.00	30.041 
13:10	79.2	79.2	80.4	54	61.1	1	5	112	0.00	30.041 
13:15	79.6	79.6	80.8	54	61.5	1	5	112	0.00	30.038 
13:20	80.1	80.1	81.1	52	60.9	1	5	112	0.00	30.038 
13:25	80.1	80.1	81.1	52	60.9	1	3	180	0.00	30.038 
13:30	79.9	79.9	80.8	51	60.1	2	6	112	0.00	30.038 
13:35	80.3	80.3	81.3	52	61.0	2	9	68	0.00	30.038 
13:40	80.1	80.1	81.2	53	61.4	1	6	90	0.00	30.038 
13:45	79.6	79.6	80.5	51	59.9	1	5	292	0.00	30.041 
13:50	78.6	78.6	79.8	53	60.0	1	4	270	0.00	30.041 
13:55	78.1	78.1	79.5	53	59.6	0	3	338	0.00	30.041 
14:00	78.3	78.3	79.7	54	60.3	1	3	90	0.00	30.039 
14:05	79.0	79.0	80.2	53	60.4	1	5	68	0.00	30.039 
14:10	79.9	79.9	80.9	52	60.7	3	7	112	0.00	30.039 
14:15	80.5	80.5	81.4	51	60.7	1	4	135	0.00	30.032 
14:20	80.3	80.3	81.3	52	61.0	1	3	135	0.00	30.032 
14:25	80.1	80.1	81.1	52	60.9	1	4	180	0.00	30.032 
14:30	79.6	79.6	80.8	54	61.5	1	4	292	0.00	30.043 
14:35	79.6	79.6	80.8	54	61.5	1	4	135	0.00	30.043 
14:40	79.4	79.4	80.5	53	60.8	1	4	90	0.00	30.043 
14:45	79.0	79.0	80.3	55	61.4	1	5	270	0.00	30.044 
14:50	79.8	79.8	81.2	56	62.7	0	2	292	0.00	30.044 
14:55	79.9	79.9	80.9	52	60.7	1	6	90	0.00	30.044 
15:00	79.8	79.8	81.1	55	62.2	2	5	68	0.00	30.039 
15:05	80.3	80.3	81.5	54	62.1	0	2	90	0.00	30.039 
15:10	80.7	80.7	81.4	50	60.3	1	4	315	0.00	30.039 
15:15	80.7	80.7	81.6	51	60.9	1	4	338	0.00	30.035 
15:20	81.1	81.1	82.2	53	62.3	1	3	338	0.00	30.035 
15:25	81.6	81.6	82.5	51	61.7	0	2	90	0.00	30.035 
15:30	81.2	81.2	82.2	52	61.9	1	6	135	0.00	30.035 
15:35	81.1	81.1	82.1	52	61.8	2	5	270	0.00	30.035 
15:40	81.4	81.4	82.1	50	60.9	1	4	90	0.00	30.035 
15:45	80.7	80.7	81.6	51	60.9	1	3	292	0.00	30.044 
15:50	80.7	80.7	81.6	51	60.9	1	5	90	0.00	30.044 
15:55	81.4	81.4	82.1	50	60.9	0	1	112	0.00	30.044 
16:00	81.4	81.4	82.0	49	60.4	1	4	112	0.00	30.046 
16:05	81.1	81.1	82.0	51	61.2	1	5	90	0.00	30.046 
16:10	80.9	80.9	81.8	51	61.0	1	5	112	0.00	30.046 
16:15	81.2	81.2	81.8	49	60.2	1	3	338	0.00	30.046 
16:20	81.4	81.4	81.9	48	59.8	0	2	315	0.00	30.046 
16:25	81.4	81.4	82.1	50	60.9	0	2	315	0.00	30.046 
16:30	80.9	80.9	81.9	52	61.6	0	3	90	0.00	30.046 
16:35	81.2	81.2	81.7	48	59.6	1	3	90	0.00	30.046 
16:40	82.2	82.2	83.0	50	61.7	1	4	90	0.00	30.046 
16:45	82.6	82.6	83.4	50	62.0	1	4	68	0.00	30.043 
16:50	82.6	82.6	83.1	48	60.9	0	2	68	0.00	30.043 
16:55	82.6	82.6	83.1	48	60.9	1	3	68	0.00	30.043 
17:00	82.8	82.8	83.3	48	61.1	0	2	158	0.00	30.041 
17:05	82.8	82.8	83.0	46	59.9	0	1	135	0.00	30.041 
17:10	81.8	81.8	82.4	49	60.7	0	3	0	0.00	30.041 
17:15	80.9	80.9	81.6	50	60.5	0	3	0	0.00	30.043 
17:20	80.3	80.3	81.2	51	60.5	0	1	270	0.00	30.043 
17:25	80.5	80.5	81.3	50	60.1	1	3	270	0.00	30.043 
17:30	80.5	80.5	81.3	50	60.1	0	2	270	0.00	30.040 
17:35	80.9	80.9	81.9	52	61.6	1	3	292	0.00	30.040 
17:40	81.2	81.2	82.2	52	61.9	0	3	292	0.00	30.040 
17:45	81.4	81.4	82.1	50	60.9	0	3	292	0.00	30.041 
17:50	81.6	81.6	82.1	48	60.0	1	3	292	0.00	30.041 
17:55	81.8	81.8	82.3	48	60.2	1	3	270	0.00	30.041 
18:00	81.8	81.8	82.4	49	60.7	1	3	292	0.00	30.040 
18:05	81.8	81.8	82.6	50	61.3	0	2	0	0.00	30.040 
18:10	81.6	81.6	82.1	48	60.0	0	2	0	0.00	30.040 
18:15	80.9	80.9	81.6	50	60.5	0	2	0	0.00	30.042 
18:20	80.1	80.1	80.9	50	59.8	0	1	0	0.00	30.042 
18:25	79.9	79.9	80.7	50	59.6	0	3	0	0.00	30.042 
18:30	79.8	79.8	80.7	51	60.0	0	1	0	0.00	30.045 
18:35	80.1	80.1	81.0	51	60.3	0	1	0	0.00	30.045 
18:40	80.5	80.5	81.3	50	60.1	0	2	0	0.00	30.045 
18:45	80.9	80.9	81.5	49	59.9	0	1	0	0.00	30.043 
18:50	81.1	81.1	81.7	49	60.1	1	2	0	0.00	30.043 
18:55	81.1	81.1	81.6	48	59.5	0	2	0	0.00	30.043 
19:00	81.1	81.1	81.7	49	60.1	0	2	292	0.00	30.044 
19:05	81.1	81.1	81.4	46	58.3	1	4	270	0.00	30.044 
19:10	81.1	81.1	81.6	48	59.5	1	3	270	0.00	30.044 
19:15	81.1	81.1	81.5	47	58.9	1	4	270	0.00	30.045 
19:20	80.9	80.9	81.3	47	58.8	1	4	292	0.00	30.045 
19:25	80.5	80.5	80.8	46	57.8	0	2	292	0.00	30.045 
19:30	80.5	80.5	80.9	47	58.4	0	1	292	0.00	30.044 
19:35	80.3	80.3	80.7	46	57.6	0	3	292	0.00	30.044 
19:40	80.1	80.1	80.5	46	57.4	1	3	292	0.00	30.044 
19:45	80.1	80.1	80.5	46	57.4	0	3	292	0.00	30.045 
19:50	79.9	79.9	80.4	47	57.8	0	1	292	0.00	30.045 
19:55	79.8	79.8	80.4	47	57.8	0	2	292	0.00	30.045 
20:00	79.6	79.6	80.2	47	57.6	0	1	292	0.00	30.044 
20:05	79.6	79.6	80.3	48	58.2	0	0	---	0.00	30.044 
20:10	79.2	79.2	80.0	48	57.8	0	1	292	0.00	30.044 
20:15	78.8	78.8	79.6	47	56.8	0	1	292	0.00	30.044 
20:20	78.6	78.6	79.5	47	56.7	0	1	292	0.00	30.044 
20:25	78.5	78.5	79.4	47	56.6	0	1	292	0.00	30.044 
20:30	78.3	78.3	79.3	48	57.0	0	0	---	0.00	30.045 
20:35	78.1	78.1	79.2	47	56.2	0	0	---	0.00	30.045 
20:40	77.9	77.9	79.0	47	56.0	0	0	---	0.00	30.045 
20:45	77.7	77.7	78.9	48	56.4	0	0	---	0.00	30.048 
20:50	77.4	77.4	78.8	49	56.7	0	0	---	0.00	30.048 
20:55	77.0	77.0	78.6	50	56.9	0	0	---	0.00	30.048 
21:00	76.7	76.7	78.4	50	56.6	0	0	---	0.00	30.055 
21:05	76.3	76.3	78.2	50	56.3	0	0	---	0.00	30.055 
21:10	76.0	76.0	78.1	51	56.5	0	0	---	0.00	30.055 
21:15	75.6	75.6	77.9	51	56.2	0	0	---	0.00	30.056 
21:20	75.3	75.3	77.7	52	56.4	0	0	---	0.00	30.056 
21:25	75.1	75.1	77.6	53	56.8	0	0	---	0.00	30.056 
21:30	74.7	74.7	74.7	54	56.9	0	0	---	0.00	30.057 
21:35	74.4	74.4	74.4	54	56.7	0	0	---	0.00	30.057 
21:40	73.9	73.9	73.9	55	56.7	0	0	---	0.00	30.057 
21:45	73.5	73.5	73.5	56	56.8	0	0	---	0.00	30.054 
21:50	73.2	73.2	73.2	57	57.0	0	0	---	0.00	30.054 
21:55	72.7	72.7	72.7	59	57.5	0	0	---	0.00	30.054 
22:00	72.3	72.3	72.3	60	57.6	0	0	---	0.00	30.059 
22:05	72.0	72.0	72.0	61	57.8	0	0	---	0.00	30.059 
22:10	71.6	71.6	71.6	62	57.9	0	0	---	0.00	30.059 
22:15	71.3	71.3	71.3	63	58.0	0	0	---	0.00	30.055 
22:20	70.9	70.9	70.9	64	58.1	0	0	---	0.00	30.055 
22:25	70.6	70.6	70.6	65	58.2	0	0	---	0.00	30.055 
22:30	70.3	70.3	70.3	65	58.0	0	0	---	0.00	30.051 
22:35	70.1	70.1	70.1	66	58.2	0	0	---	0.00	30.051 
22:40	69.8	69.8	69.8	66	57.9	0	0	---	0.00	30.051 
22:45	69.4	69.4	69.4	67	58.0	0	0	---	0.00	30.046 
22:50	69.1	69.1	69.1	68	58.1	0	0	---	0.00	30.046 
22:55	68.9	68.9	68.9	69	58.3	0	0	---	0.00	30.046 
23:00	68.6	68.6	68.6	70	58.4	0	0	---	0.00	30.046 
23:05	68.3	68.3	68.3	70	58.1	0	0	---	0.00	30.046 
23:10	68.1	68.1	68.1	70	57.9	0	0	---	0.00	30.046 
23:15	67.9	67.9	67.9	71	58.1	0	0	---	0.00	30.044 
23:20	67.8	67.8	67.8	72	58.4	0	0	---	0.00	30.044 
23:25	67.6	67.6	67.6	73	58.6	0	0	---	0.00	30.044 
23:30	67.4	67.4	67.4	74	58.8	0	0	---	0.00	30.047 
23:35	67.3	67.3	67.3	74	58.7	0	0	---	0.00	30.047 
23:40	67.3	67.3	67.3	74	58.7	0	0	---	0.00	30.047 
23:45	67.1	67.1	67.1	75	58.9	0	0	---	0.00	30.048 
23:50	66.9	66.9	66.9	75	58.7	0	0	---	0.00	30.048 
23:55	66.9	66.9	66.9	74	58.3	0	0	---	0.00	30.048 

CoCoRaHS
IN-AL-39
A2 Web Hosting
Creative Commons License
GoDaddy
search engine by freefind advanced

loaded 2018-11-16 00:31:21 • last modified 2010-11-18 10:43:29
Privacy PolicyDisclaimer
• wx.awcolley.com is powered by PmWiki v.2002016 •
• all content (unless otherwise noted) © 2018 A W Colley